sensor_id;sensor_type;location;lat;lon;timestamp;P1;durP1;ratioP1;P2;durP2;ratioP2
28802;SDS011;15949;55.656;37.422;2022-08-21T00:00:35;44.42;;;28.40;;
28802;SDS011;15949;55.656;37.422;2022-08-21T00:05:46;58.42;;;33.25;;
28802;SDS011;15949;55.656;37.422;2022-08-21T00:10:54;51.53;;;31.77;;
28802;SDS011;15949;55.656;37.422;2022-08-21T00:16:00;50.80;;;33.88;;
28802;SDS011;15949;55.656;37.422;2022-08-21T00:21:07;57.58;;;35.70;;
28802;SDS011;15949;55.656;37.422;2022-08-21T00:26:13;59.80;;;37.50;;
28802;SDS011;15949;55.656;37.422;2022-08-21T00:31:18;63.10;;;38.53;;
28802;SDS011;15949;55.656;37.422;2022-08-21T00:36:24;59.78;;;39.38;;
28802;SDS011;15949;55.656;37.422;2022-08-21T00:41:30;62.40;;;40.20;;
28802;SDS011;15949;55.656;37.422;2022-08-21T00:46:36;68.82;;;42.47;;
28802;SDS011;15949;55.656;37.422;2022-08-21T00:51:44;69.30;;;43.67;;
28802;SDS011;15949;55.656;37.422;2022-08-21T00:57:03;61.67;;;42.08;;
28802;SDS011;15949;55.656;37.422;2022-08-21T01:02:16;69.40;;;42.47;;
28802;SDS011;15949;55.656;37.422;2022-08-21T01:07:23;66.95;;;42.72;;
28802;SDS011;15949;55.656;37.422;2022-08-21T01:12:28;67.45;;;41.45;;
28802;SDS011;15949;55.656;37.422;2022-08-21T01:17:34;71.65;;;42.60;;
28802;SDS011;15949;55.656;37.422;2022-08-21T01:22:41;67.10;;;43.20;;
28802;SDS011;15949;55.656;37.422;2022-08-21T01:27:47;62.83;;;42.15;;
28802;SDS011;15949;55.656;37.422;2022-08-21T01:32:53;70.55;;;41.33;;
28802;SDS011;15949;55.656;37.422;2022-08-21T01:38:00;66.93;;;42.03;;
28802;SDS011;15949;55.656;37.422;2022-08-21T01:43:06;71.07;;;42.15;;
28802;SDS011;15949;55.656;37.422;2022-08-21T01:48:12;66.38;;;40.90;;
28802;SDS011;15949;55.656;37.422;2022-08-21T01:53:18;68.28;;;40.97;;
28802;SDS011;15949;55.656;37.422;2022-08-21T01:58:23;64.30;;;38.72;;
28802;SDS011;15949;55.656;37.422;2022-08-21T02:03:29;62.17;;;38.17;;
28802;SDS011;15949;55.656;37.422;2022-08-21T02:08:35;60.25;;;35.55;;
28802;SDS011;15949;55.656;37.422;2022-08-21T02:13:41;54.53;;;34.38;;
28802;SDS011;15949;55.656;37.422;2022-08-21T02:18:47;57.60;;;33.70;;
28802;SDS011;15949;55.656;37.422;2022-08-21T02:23:52;61.88;;;33.95;;
28802;SDS011;15949;55.656;37.422;2022-08-21T02:28:58;54.17;;;32.75;;
28802;SDS011;15949;55.656;37.422;2022-08-21T02:34:04;54.00;;;32.65;;
28802;SDS011;15949;55.656;37.422;2022-08-21T02:39:10;49.17;;;31.85;;
28802;SDS011;15949;55.656;37.422;2022-08-21T02:44:16;55.30;;;33.50;;
28802;SDS011;15949;55.656;37.422;2022-08-21T02:49:22;53.08;;;31.60;;
28802;SDS011;15949;55.656;37.422;2022-08-21T02:54:27;49.45;;;31.25;;
28802;SDS011;15949;55.656;37.422;2022-08-21T02:59:33;49.55;;;31.70;;
28802;SDS011;15949;55.656;37.422;2022-08-21T03:04:39;49.88;;;30.52;;
28802;SDS011;15949;55.656;37.422;2022-08-21T03:09:44;50.03;;;29.85;;
28802;SDS011;15949;55.656;37.422;2022-08-21T03:14:50;46.75;;;28.60;;
28802;SDS011;15949;55.656;37.422;2022-08-21T03:19:56;48.92;;;28.90;;
28802;SDS011;15949;55.656;37.422;2022-08-21T03:25:02;49.20;;;28.15;;
28802;SDS011;15949;55.656;37.422;2022-08-21T03:30:09;50.72;;;28.75;;
28802;SDS011;15949;55.656;37.422;2022-08-21T03:35:15;42.78;;;27.45;;
28802;SDS011;15949;55.656;37.422;2022-08-21T03:40:21;45.85;;;27.75;;
28802;SDS011;15949;55.656;37.422;2022-08-21T03:45:27;44.83;;;26.80;;
28802;SDS011;15949;55.656;37.422;2022-08-21T03:50:35;40.35;;;24.38;;
28802;SDS011;15949;55.656;37.422;2022-08-21T03:55:47;41.28;;;24.52;;
28802;SDS011;15949;55.656;37.422;2022-08-21T04:00:55;39.72;;;24.20;;
28802;SDS011;15949;55.656;37.422;2022-08-21T04:06:03;43.63;;;25.17;;
28802;SDS011;15949;55.656;37.422;2022-08-21T04:11:10;43.15;;;23.75;;
28802;SDS011;15949;55.656;37.422;2022-08-21T04:16:15;39.22;;;23.83;;
28802;SDS011;15949;55.656;37.422;2022-08-21T04:21:21;38.80;;;24.50;;
28802;SDS011;15949;55.656;37.422;2022-08-21T04:26:27;41.83;;;24.70;;
28802;SDS011;15949;55.656;37.422;2022-08-21T04:31:33;35.28;;;22.63;;
28802;SDS011;15949;55.656;37.422;2022-08-21T04:36:41;40.17;;;24.20;;
28802;SDS011;15949;55.656;37.422;2022-08-21T04:41:47;36.38;;;22.05;;
28802;SDS011;15949;55.656;37.422;2022-08-21T04:46:53;40.42;;;23.85;;
28802;SDS011;15949;55.656;37.422;2022-08-21T04:51:59;42.30;;;23.52;;
28802;SDS011;15949;55.656;37.422;2022-08-21T04:57:06;44.38;;;25.48;;
28802;SDS011;15949;55.656;37.422;2022-08-21T05:02:15;40.38;;;26.67;;
28802;SDS011;15949;55.656;37.422;2022-08-21T05:07:22;51.40;;;27.70;;
28802;SDS011;15949;55.656;37.422;2022-08-21T05:17:36;47.22;;;28.35;;
28802;SDS011;15949;55.656;37.422;2022-08-21T05:22:42;47.25;;;28.55;;
28802;SDS011;15949;55.656;37.422;2022-08-21T05:27:48;51.38;;;30.20;;
28802;SDS011;15949;55.656;37.422;2022-08-21T05:33:00;47.90;;;29.27;;
28802;SDS011;15949;55.656;37.422;2022-08-21T05:38:07;53.42;;;30.83;;
28802;SDS011;15949;55.656;37.422;2022-08-21T05:43:14;41.25;;;28.00;;
28802;SDS011;15949;55.656;37.422;2022-08-21T05:48:21;42.05;;;27.52;;
28802;SDS011;15949;55.656;37.422;2022-08-21T05:53:28;41.60;;;26.90;;
28802;SDS011;15949;55.656;37.422;2022-08-21T05:58:34;46.22;;;26.65;;
28802;SDS011;15949;55.656;37.422;2022-08-21T06:03:40;41.55;;;25.60;;
28802;SDS011;15949;55.656;37.422;2022-08-21T06:08:47;45.30;;;26.75;;
28802;SDS011;15949;55.656;37.422;2022-08-21T06:13:53;38.28;;;25.25;;
28802;SDS011;15949;55.656;37.422;2022-08-21T06:18:59;36.92;;;23.20;;
28802;SDS011;15949;55.656;37.422;2022-08-21T06:24:05;36.58;;;21.40;;
28802;SDS011;15949;55.656;37.422;2022-08-21T06:29:12;33.90;;;20.48;;
28802;SDS011;15949;55.656;37.422;2022-08-21T06:34:21;32.97;;;21.17;;
28802;SDS011;15949;55.656;37.422;2022-08-21T06:39:27;32.67;;;19.88;;
28802;SDS011;15949;55.656;37.422;2022-08-21T06:44:33;32.45;;;20.13;;
28802;SDS011;15949;55.656;37.422;2022-08-21T06:49:38;32.60;;;19.88;;
28802;SDS011;15949;55.656;37.422;2022-08-21T06:54:45;34.78;;;19.40;;
28802;SDS011;15949;55.656;37.422;2022-08-21T06:59:50;29.58;;;19.27;;
28802;SDS011;15949;55.656;37.422;2022-08-21T07:04:57;36.03;;;21.92;;
28802;SDS011;15949;55.656;37.422;2022-08-21T07:10:03;37.97;;;22.88;;
28802;SDS011;15949;55.656;37.422;2022-08-21T07:15:09;35.08;;;20.83;;
28802;SDS011;15949;55.656;37.422;2022-08-21T07:20:15;31.65;;;18.23;;
28802;SDS011;15949;55.656;37.422;2022-08-21T07:25:22;30.48;;;18.45;;
28802;SDS011;15949;55.656;37.422;2022-08-21T07:30:28;31.25;;;19.40;;
28802;SDS011;15949;55.656;37.422;2022-08-21T07:35:34;35.00;;;20.50;;
28802;SDS011;15949;55.656;37.422;2022-08-21T07:40:39;42.13;;;23.30;;
28802;SDS011;15949;55.656;37.422;2022-08-21T07:45:45;38.85;;;23.42;;
28802;SDS011;15949;55.656;37.422;2022-08-21T07:50:51;38.65;;;22.98;;
28802;SDS011;15949;55.656;37.422;2022-08-21T07:55:57;45.08;;;21.77;;
28802;SDS011;15949;55.656;37.422;2022-08-21T08:01:03;36.15;;;20.75;;
28802;SDS011;15949;55.656;37.422;2022-08-21T08:06:11;41.50;;;22.13;;
28802;SDS011;15949;55.656;37.422;2022-08-21T08:11:21;38.95;;;21.88;;
28802;SDS011;15949;55.656;37.422;2022-08-21T08:16:27;34.88;;;20.23;;
28802;SDS011;15949;55.656;37.422;2022-08-21T08:21:33;39.30;;;19.83;;
28802;SDS011;15949;55.656;37.422;2022-08-21T08:26:39;36.70;;;21.13;;
28802;SDS011;15949;55.656;37.422;2022-08-21T08:31:44;32.95;;;20.20;;
28802;SDS011;15949;55.656;37.422;2022-08-21T08:36:50;38.53;;;20.17;;
28802;SDS011;15949;55.656;37.422;2022-08-21T08:41:57;33.58;;;19.77;;
28802;SDS011;15949;55.656;37.422;2022-08-21T08:47:08;31.10;;;19.77;;
28802;SDS011;15949;55.656;37.422;2022-08-21T08:52:20;34.53;;;19.92;;
28802;SDS011;15949;55.656;37.422;2022-08-21T08:57:31;34.00;;;21.10;;
28802;SDS011;15949;55.656;37.422;2022-08-21T09:02:39;41.65;;;22.35;;
28802;SDS011;15949;55.656;37.422;2022-08-21T09:24:19;36.72;;;20.05;;
28802;SDS011;15949;55.656;37.422;2022-08-21T09:29:36;34.45;;;20.02;;
28802;SDS011;15949;55.656;37.422;2022-08-21T09:34:54;32.42;;;16.88;;
28802;SDS011;15949;55.656;37.422;2022-08-21T09:40:15;27.27;;;14.13;;
28802;SDS011;15949;55.656;37.422;2022-08-21T09:45:26;22.50;;;12.50;;
28802;SDS011;15949;55.656;37.422;2022-08-21T09:50:32;24.98;;;12.20;;
28802;SDS011;15949;55.656;37.422;2022-08-21T09:55:39;25.83;;;12.10;;
28802;SDS011;15949;55.656;37.422;2022-08-21T10:01:15;25.63;;;12.02;;
28802;SDS011;15949;55.656;37.422;2022-08-21T10:06:28;22.35;;;12.30;;
28802;SDS011;15949;55.656;37.422;2022-08-21T10:11:33;26.40;;;12.60;;
28802;SDS011;15949;55.656;37.422;2022-08-21T10:16:47;18.63;;;8.50;;
28802;SDS011;15949;55.656;37.422;2022-08-21T10:27:22;18.23;;;7.20;;
28802;SDS011;15949;55.656;37.422;2022-08-21T10:43:36;12.75;;;6.53;;
28802;SDS011;15949;55.656;37.422;2022-08-21T10:54:23;13.27;;;5.43;;
28802;SDS011;15949;55.656;37.422;2022-08-21T11:00:05;14.27;;;4.95;;
28802;SDS011;15949;55.656;37.422;2022-08-21T11:05:17;11.73;;;5.10;;
28802;SDS011;15949;55.656;37.422;2022-08-21T11:10:50;13.02;;;4.03;;
28802;SDS011;15949;55.656;37.422;2022-08-21T11:21:34;11.13;;;3.78;;
28802;SDS011;15949;55.656;37.422;2022-08-21T11:48:09;19.30;;;2.80;;
28802;SDS011;15949;55.656;37.422;2022-08-21T11:53:20;8.90;;;3.10;;
28802;SDS011;15949;55.656;37.422;2022-08-21T11:58:30;11.07;;;3.22;;
28802;SDS011;15949;55.656;37.422;2022-08-21T12:04:25;16.40;;;3.88;;
28802;SDS011;15949;55.656;37.422;2022-08-21T12:19:56;15.25;;;4.18;;
28802;SDS011;15949;55.656;37.422;2022-08-21T12:25:07;12.27;;;4.28;;
28802;SDS011;15949;55.656;37.422;2022-08-21T12:30:32;16.08;;;4.03;;
28802;SDS011;15949;55.656;37.422;2022-08-21T12:35:40;15.77;;;3.45;;
28802;SDS011;15949;55.656;37.422;2022-08-21T12:41:06;21.08;;;3.80;;
28802;SDS011;15949;55.656;37.422;2022-08-21T12:46:25;14.65;;;3.13;;
28802;SDS011;15949;55.656;37.422;2022-08-21T12:57:08;12.85;;;2.90;;
28802;SDS011;15949;55.656;37.422;2022-08-21T13:02:24;11.63;;;2.80;;
28802;SDS011;15949;55.656;37.422;2022-08-21T13:07:34;21.95;;;3.60;;
28802;SDS011;15949;55.656;37.422;2022-08-21T13:12:41;18.85;;;3.60;;
28802;SDS011;15949;55.656;37.422;2022-08-21T13:17:52;16.65;;;3.20;;
28802;SDS011;15949;55.656;37.422;2022-08-21T13:22:59;15.85;;;4.32;;
28802;SDS011;15949;55.656;37.422;2022-08-21T13:33:14;24.08;;;4.93;;
28802;SDS011;15949;55.656;37.422;2022-08-21T13:38:22;21.52;;;5.07;;
28802;SDS011;15949;55.656;37.422;2022-08-21T13:43:32;19.13;;;5.00;;
28802;SDS011;15949;55.656;37.422;2022-08-21T13:53:47;18.65;;;5.10;;
28802;SDS011;15949;55.656;37.422;2022-08-21T13:58:59;23.17;;;4.95;;
28802;SDS011;15949;55.656;37.422;2022-08-21T14:04:07;24.63;;;5.38;;
28802;SDS011;15949;55.656;37.422;2022-08-21T14:09:34;15.98;;;4.75;;
28802;SDS011;15949;55.656;37.422;2022-08-21T14:14:47;18.85;;;4.45;;
28802;SDS011;15949;55.656;37.422;2022-08-21T14:19:53;14.82;;;3.88;;
28802;SDS011;15949;55.656;37.422;2022-08-21T14:25:00;16.90;;;4.10;;
28802;SDS011;15949;55.656;37.422;2022-08-21T14:30:33;16.02;;;4.25;;
28802;SDS011;15949;55.656;37.422;2022-08-21T14:35:41;20.35;;;4.20;;
28802;SDS011;15949;55.656;37.422;2022-08-21T14:40:48;15.05;;;4.10;;
28802;SDS011;15949;55.656;37.422;2022-08-21T14:45:56;13.07;;;4.03;;
28802;SDS011;15949;55.656;37.422;2022-08-21T14:51:02;14.40;;;4.90;;
28802;SDS011;15949;55.656;37.422;2022-08-21T14:56:07;16.15;;;5.53;;
28802;SDS011;15949;55.656;37.422;2022-08-21T15:01:14;17.52;;;5.63;;
28802;SDS011;15949;55.656;37.422;2022-08-21T15:06:22;15.02;;;5.90;;
28802;SDS011;15949;55.656;37.422;2022-08-21T15:11:27;19.73;;;5.90;;
28802;SDS011;15949;55.656;37.422;2022-08-21T15:16:33;13.07;;;5.53;;
28802;SDS011;15949;55.656;37.422;2022-08-21T15:21:39;15.35;;;5.57;;
28802;SDS011;15949;55.656;37.422;2022-08-21T15:26:44;16.67;;;5.47;;
28802;SDS011;15949;55.656;37.422;2022-08-21T15:31:58;12.38;;;5.18;;
28802;SDS011;15949;55.656;37.422;2022-08-21T15:37:24;17.45;;;4.78;;
28802;SDS011;15949;55.656;37.422;2022-08-21T15:42:30;16.08;;;5.88;;
28802;SDS011;15949;55.656;37.422;2022-08-21T15:47:37;93.07;;;53.97;;
28802;SDS011;15949;55.656;37.422;2022-08-21T15:52:44;17.55;;;7.65;;
28802;SDS011;15949;55.656;37.422;2022-08-21T15:57:49;12.77;;;5.05;;
28802;SDS011;15949;55.656;37.422;2022-08-21T16:02:58;60.78;;;44.08;;
28802;SDS011;15949;55.656;37.422;2022-08-21T16:08:04;53.38;;;29.55;;
28802;SDS011;15949;55.656;37.422;2022-08-21T16:13:13;14.30;;;5.18;;
28802;SDS011;15949;55.656;37.422;2022-08-21T16:18:23;10.73;;;3.67;;
28802;SDS011;15949;55.656;37.422;2022-08-21T16:23:30;12.00;;;3.25;;
28802;SDS011;15949;55.656;37.422;2022-08-21T16:28:36;6.75;;;2.72;;
28802;SDS011;15949;55.656;37.422;2022-08-21T16:33:45;11.82;;;2.60;;
28802;SDS011;15949;55.656;37.422;2022-08-21T16:38:55;10.65;;;2.80;;
28802;SDS011;15949;55.656;37.422;2022-08-21T16:44:02;7.20;;;2.50;;
28802;SDS011;15949;55.656;37.422;2022-08-21T16:49:10;16.20;;;2.92;;
28802;SDS011;15949;55.656;37.422;2022-08-21T16:54:15;8.30;;;2.13;;
28802;SDS011;15949;55.656;37.422;2022-08-21T16:59:21;5.00;;;2.05;;
28802;SDS011;15949;55.656;37.422;2022-08-21T17:04:27;10.10;;;2.30;;
28802;SDS011;15949;55.656;37.422;2022-08-21T17:09:32;8.75;;;2.15;;
28802;SDS011;15949;55.656;37.422;2022-08-21T17:14:38;6.50;;;1.90;;
28802;SDS011;15949;55.656;37.422;2022-08-21T17:19:44;10.15;;;1.90;;
28802;SDS011;15949;55.656;37.422;2022-08-21T17:24:50;8.07;;;2.20;;
28802;SDS011;15949;55.656;37.422;2022-08-21T17:29:55;6.57;;;2.05;;
28802;SDS011;15949;55.656;37.422;2022-08-21T17:35:01;7.07;;;1.95;;
28802;SDS011;15949;55.656;37.422;2022-08-21T17:40:09;5.70;;;2.58;;
28802;SDS011;15949;55.656;37.422;2022-08-21T17:45:18;20.45;;;2.88;;
28802;SDS011;15949;55.656;37.422;2022-08-21T17:50:24;7.07;;;2.47;;
28802;SDS011;15949;55.656;37.422;2022-08-21T17:55:30;8.73;;;2.40;;
28802;SDS011;15949;55.656;37.422;2022-08-21T18:00:37;7.78;;;2.55;;
28802;SDS011;15949;55.656;37.422;2022-08-21T18:05:46;7.85;;;2.25;;
28802;SDS011;15949;55.656;37.422;2022-08-21T18:10:53;6.75;;;2.53;;
28802;SDS011;15949;55.656;37.422;2022-08-21T18:15:58;9.85;;;2.40;;
28802;SDS011;15949;55.656;37.422;2022-08-21T18:21:05;5.47;;;2.33;;
28802;SDS011;15949;55.656;37.422;2022-08-21T18:26:15;8.63;;;2.53;;
28802;SDS011;15949;55.656;37.422;2022-08-21T18:31:28;8.38;;;2.40;;
28802;SDS011;15949;55.656;37.422;2022-08-21T18:36:35;8.85;;;2.60;;
28802;SDS011;15949;55.656;37.422;2022-08-21T18:41:41;6.82;;;2.50;;
28802;SDS011;15949;55.656;37.422;2022-08-21T18:46:50;9.10;;;2.60;;
28802;SDS011;15949;55.656;37.422;2022-08-21T18:51:59;10.88;;;2.60;;
28802;SDS011;15949;55.656;37.422;2022-08-21T18:57:04;11.23;;;2.75;;
28802;SDS011;15949;55.656;37.422;2022-08-21T19:02:10;5.90;;;2.35;;
28802;SDS011;15949;55.656;37.422;2022-08-21T19:07:16;10.07;;;2.20;;
28802;SDS011;15949;55.656;37.422;2022-08-21T19:12:24;9.93;;;2.70;;
28802;SDS011;15949;55.656;37.422;2022-08-21T19:17:30;12.35;;;2.70;;
28802;SDS011;15949;55.656;37.422;2022-08-21T19:22:36;8.30;;;2.35;;
28802;SDS011;15949;55.656;37.422;2022-08-21T19:27:42;18.35;;;2.88;;
28802;SDS011;15949;55.656;37.422;2022-08-21T19:32:48;10.02;;;3.00;;
28802;SDS011;15949;55.656;37.422;2022-08-21T19:37:54;8.77;;;2.55;;
28802;SDS011;15949;55.656;37.422;2022-08-21T19:42:59;7.15;;;2.60;;
28802;SDS011;15949;55.656;37.422;2022-08-21T19:48:05;10.15;;;2.60;;
28802;SDS011;15949;55.656;37.422;2022-08-21T19:53:11;6.68;;;2.13;;
28802;SDS011;15949;55.656;37.422;2022-08-21T19:58:25;5.18;;;2.15;;
28802;SDS011;15949;55.656;37.422;2022-08-21T20:03:38;7.57;;;2.13;;
28802;SDS011;15949;55.656;37.422;2022-08-21T20:08:44;11.13;;;2.35;;
28802;SDS011;15949;55.656;37.422;2022-08-21T20:13:52;8.93;;;1.87;;
28802;SDS011;15949;55.656;37.422;2022-08-21T20:18:58;7.50;;;2.05;;
28802;SDS011;15949;55.656;37.422;2022-08-21T20:24:07;9.88;;;2.17;;
28802;SDS011;15949;55.656;37.422;2022-08-21T20:29:12;11.15;;;2.50;;
28802;SDS011;15949;55.656;37.422;2022-08-21T20:34:18;8.73;;;2.67;;
28802;SDS011;15949;55.656;37.422;2022-08-21T20:39:24;8.15;;;2.30;;
28802;SDS011;15949;55.656;37.422;2022-08-21T20:44:30;8.45;;;2.50;;
28802;SDS011;15949;55.656;37.422;2022-08-21T20:49:39;9.02;;;2.47;;
28802;SDS011;15949;55.656;37.422;2022-08-21T20:55:09;7.78;;;2.20;;
28802;SDS011;15949;55.656;37.422;2022-08-21T21:00:18;6.77;;;2.53;;
28802;SDS011;15949;55.656;37.422;2022-08-21T21:05:30;11.02;;;2.58;;
28802;SDS011;15949;55.656;37.422;2022-08-21T21:16:22;7.97;;;2.50;;
28802;SDS011;15949;55.656;37.422;2022-08-21T21:21:39;7.28;;;2.30;;
28802;SDS011;15949;55.656;37.422;2022-08-21T21:31:54;7.63;;;2.65;;
28802;SDS011;15949;55.656;37.422;2022-08-21T21:37:04;7.22;;;2.50;;
28802;SDS011;15949;55.656;37.422;2022-08-21T21:42:33;7.85;;;2.63;;
28802;SDS011;15949;55.656;37.422;2022-08-21T21:59:23;8.67;;;2.90;;
28802;SDS011;15949;55.656;37.422;2022-08-21T22:09:53;7.35;;;2.80;;
28802;SDS011;15949;55.656;37.422;2022-08-21T22:15:21;6.38;;;2.83;;
28802;SDS011;15949;55.656;37.422;2022-08-21T22:25:43;13.43;;;3.13;;
28802;SDS011;15949;55.656;37.422;2022-08-21T22:30:54;6.50;;;2.40;;
28802;SDS011;15949;55.656;37.422;2022-08-21T22:36:18;6.05;;;2.70;;
28802;SDS011;15949;55.656;37.422;2022-08-21T22:41:29;7.43;;;2.47;;
28802;SDS011;15949;55.656;37.422;2022-08-21T22:46:43;6.97;;;2.67;;
28802;SDS011;15949;55.656;37.422;2022-08-21T22:57:58;9.93;;;2.47;;
28802;SDS011;15949;55.656;37.422;2022-08-21T23:03:06;8.70;;;2.60;;
28802;SDS011;15949;55.656;37.422;2022-08-21T23:08:28;12.23;;;2.72;;
28802;SDS011;15949;55.656;37.422;2022-08-21T23:13:39;13.13;;;2.80;;
28802;SDS011;15949;55.656;37.422;2022-08-21T23:29:49;12.73;;;2.80;;
28802;SDS011;15949;55.656;37.422;2022-08-21T23:51:02;6.68;;;2.78;;
